メインページ
METAR-TAF:

METAR-TAF

空港 :

Mitiga International Airport

トリポリ, リビア

緯度: 32-54N, 経度: 13-17E, 海抜: 11m

METAR: 見つかりません

時間: 16:28 (14:28 UTC)

予報

当レポートは27時間28分前の11:00(UTC)に作成
予報は15日の 12時(UTC)から 16日の 12時(UTC)まで有効
北/北西の風 12kt
視程: 8000m
高度2200ftの雲は散在している
確率 30% :
16日の 03時(UTC)から 16日の 12時(UTC)まで一時的に
視程: 5000m
高度2000ftの雲はほとんどない, 塔状積雲.
高度2200ftの千切れ雲あり
にわか雨
15日の 20時(UTC)から 15日の 22時(UTC)まで徐々に
南西の風 12kt
16日の 10時(UTC)から 16日の 12時(UTC)まで徐々に
北/北西の風 12kt

TAF: HLLM 151100Z 1512/1612 33012KT 8000 SCT022 BKN 080 PROB30 TEMPO 1603/1612 5000 SHRA FEW020TCU BKN022 BECMG 1520/1522 23012KT BECMG 1610/1612 33012KT

4,000以上の空港の気象観測と天気予報(METAR報とTAF報)

利用可能な観測所は地図上に黄色い丸と赤い丸で示す。

丸の上にカーソルを重ねると観測所名を参照できる。

次にクリックすると気象観測と天気予報を参照できる。

マップの切り替え:黒色「×」印の緑ボタンをクリックして拡大、「-」印の緑ボタンをクリックして縮小、緑色の三角印をクリックして隣りの地図に切り替え


METAR-TAF: